Time;durP1;ratioP1;P1;durP2;ratioP2;P2;SDS_P1;SDS_P2;PMS_P1;PMS_P2;Temp;Humidity;BMP_temperature;BMP_pressure;BME280_temperature;BME280_humidity;BME280_pressure;Samples;Min_cycle;Max_cycle;Signal;HPM_P1;HPM_P2
2022/06/29 00:00:02;;;;;;;;;;;;;;;;;;4978406;28;20343;-92
2022/06/29 00:02:28;;;;;;;;;;;;;;;;;;4977008;28;20369;-94
2022/06/29 00:04:54;;;;;;;;;;;;;;;;;;4972869;28;19918;-93
2022/06/29 00:07:20;;;;;;;;;;;;;;;;;;4970477;28;19914;-93
2022/06/29 00:09:47;;;;;;;;;;;;;;;;;;4970529;28;19920;-92
2022/06/29 00:12:12;;;;;;;;;;;;;;;;;;5002611;28;20376;-93
2022/06/29 00:14:41;;;;;;;;;;;;;;;;;;4999519;28;19914;-93
2022/06/29 00:17:07;;;;;;;;;;;;;;;;;;4996290;28;19920;-93
2022/06/29 00:19:33;;;;;;;;;;;;;;;;;;4982912;28;20332;-93
2022/06/29 00:21:59;;;;;;;;;;;;;;;;;;4983760;28;19918;-92
2022/06/29 00:24:25;;;;;;;;;;;;;;;;;;4979545;28;19957;-93
2022/06/29 00:26:51;;;;;;;;;;;;;;;;;;4986332;28;19919;-91
2022/06/29 00:29:17;;;;;;;;;;;;;;;;;;4967474;28;19972;-92
2022/06/29 00:31:43;;;;;;;;;;;;;;;;;;4959831;28;20434;-93
2022/06/29 00:34:09;;;;;;;;;;;;;;;;;;4969762;28;19909;-93
2022/06/29 00:36:34;;;;;;;;;;;;;;;;;;4973934;28;19910;-93
2022/06/29 00:39:00;;;;;;;;;;;;;;;;;;4983928;28;20144;-93
2022/06/29 00:41:26;;;;;;;;;;;;;;;;;;4969764;28;19939;-92
2022/06/29 00:43:52;;;;;;;;;;;;;;;;;;4969271;28;20023;-93
2022/06/29 00:46:18;;;;;;;;;;;;;;;;;;4970127;28;19944;-93
2022/06/29 00:48:44;;;;;;;;;;;;;;;;;;4967914;28;21109;-91
2022/06/29 00:51:10;;;;;;;;;;;;;;;;;;4983011;28;19918;-93
2022/06/29 00:53:36;;;;;;;;;;;;;;;;;;4985790;28;20853;-92
2022/06/29 00:56:02;;;;;;;;;;;;;;;;;;4986950;28;19914;-93
2022/06/29 00:58:28;;;;;;;;;;;;;;;;;;5001033;28;19910;-91
2022/06/29 01:00:53;;;;;;;;;;;;;;;;;;4987650;28;19921;-93
2022/06/29 01:03:19;;;;;;;;;;;;;;;;;;4970685;28;20256;-93
2022/06/29 01:05:47;;;;;;;;;;;;;;;;;;4967887;28;19914;-93
2022/06/29 01:08:13;;;;;;;;;;;;;;;;;;4970462;28;19960;-93
2022/06/29 01:10:39;;;;;;;;;;;;;;;;;;4968250;28;20008;-93
2022/06/29 01:13:05;;;;;;;;;;;;;;;;;;4968531;28;19953;-93
2022/06/29 01:15:30;;;;;;;;;;;;;;;;;;4969243;28;20569;-93
2022/06/29 01:17:56;;;;;;;;;;;;;;;;;;4969341;28;20004;-91
2022/06/29 01:20:22;;;;;;;;;;;;;;;;;;4986411;28;19918;-93
2022/06/29 01:22:48;;;;;;;;;;;;;;;;;;4979458;28;19910;-92
2022/06/29 01:25:14;;;;;;;;;;;;;;;;;;4981231;28;19997;-92
2022/06/29 01:27:41;;;;;;;;;;;;;;;;;;4984832;28;19917;-93
2022/06/29 01:30:07;;;;;;;;;;;;;;;;;;4979133;28;20008;-93
2022/06/29 01:32:33;;;;;;;;;;;;;;;;;;4985910;28;19977;-91
2022/06/29 01:34:59;;;;;;;;;;;;;;;;;;4984364;28;20005;-91
2022/06/29 01:37:25;;;;;;;;;;;;;;;;;;4966325;28;20287;-92
2022/06/29 01:39:51;;;;;;;;;;;;;;;;;;4979228;28;19918;-93
2022/06/29 01:42:17;;;;;;;;;;;;;;;;;;4967219;28;19934;-92
2022/06/29 01:44:43;;;;;;;;;;;;;;;;;;4967887;28;19953;-93
2022/06/29 01:47:09;;;;;;;;;;;;;;;;;;4982601;28;20007;-92
2022/06/29 01:49:35;;;;;;;;;;;;;;;;;;4982614;28;19968;-93
2022/06/29 01:52:00;;;;;;;;;;;;;;;;;;4963140;28;19918;-93
2022/06/29 01:54:26;;;;;;;;;;;;;;;;;;4962445;28;19910;-93
2022/06/29 01:56:52;;;;;;;;;;;;;;;;;;4964527;28;19953;-93
2022/06/29 01:59:18;;;;;;;;;;;;;;;;;;4965450;28;20004;-92
2022/06/29 02:01:46;;;;;;;;;;;;;;;;;;4967175;28;19929;-93
2022/06/29 02:04:12;;;;;;;;;;;;;;;;;;4978891;28;19925;-92
2022/06/29 02:06:38;;;;;;;;;;;;;;;;;;4979123;28;20389;-91
2022/06/29 02:09:03;;;;;;;;;;;;;;;;;;4982248;28;19913;-94
2022/06/29 02:11:29;;;;;;;;;;;;;;;;;;4976796;28;21491;-91
2022/06/29 02:13:55;;;;;;;;;;;;;;;;;;4971140;28;19909;-92
2022/06/29 02:16:21;;;;;;;;;;;;;;;;;;4968051;28;20008;-92
2022/06/29 02:18:47;;;;;;;;;;;;;;;;;;4966726;28;19910;-92
2022/06/29 02:21:13;;;;;;;;;;;;;;;;;;4964709;28;19910;-93
2022/06/29 02:23:39;;;;;;;;;;;;;;;;;;4962364;28;19917;-92
2022/06/29 02:26:05;;;;;;;;;;;;;;;;;;4982344;28;19933;-91
2022/06/29 02:28:31;;;;;;;;;;;;;;;;;;4983875;28;20138;-93
2022/06/29 02:36:26;;;;;;;;;;;;;;;;;;4979594;28;19920;-94
2022/06/29 02:38:52;;;;;;;;;;;;;;;;;;4990329;28;19909;-91
2022/06/29 02:41:19;;;;;;;;;;;;;;;;;;4983782;28;19910;-93
2022/06/29 02:43:45;;;;;;;;;;;;;;;;;;4984739;28;19916;-93
2022/06/29 02:46:11;;;;;;;;;;;;;;;;;;4979841;28;19918;-93
2022/06/29 02:48:37;;;;;;;;;;;;;;;;;;4994098;28;19928;-92
2022/06/29 02:51:03;;;;;;;;;;;;;;;;;;4980661;28;19918;-92
2022/06/29 02:53:29;;;;;;;;;;;;;;;;;;4965228;28;19921;-92
2022/06/29 02:55:55;;;;;;;;;;;;;;;;;;4965935;28;20197;-93
2022/06/29 02:58:21;;;;;;;;;;;;;;;;;;4968553;28;19936;-94
2022/06/29 03:00:47;;;;;;;;;;;;;;;;;;4965445;28;19921;-93
2022/06/29 03:03:13;;;;;;;;;;;;;;;;;;4982407;28;19917;-92
2022/06/29 03:05:39;;;;;;;;;;;;;;;;;;4962650;28;19914;-93
2022/06/29 03:08:04;;;;;;;;;;;;;;;;;;4968182;28;19922;-93
2022/06/29 03:10:30;;;;;;;;;;;;;;;;;;4966521;28;19913;-91
2022/06/29 03:12:56;;;;;;;;;;;;;;;;;;4980585;28;22404;-92
2022/06/29 03:15:25;;;;;;;;;;;;;;;;;;4966839;28;19917;-91
2022/06/29 03:17:51;;;;;;;;;;;;;;;;;;4968364;28;19926;-92
2022/06/29 03:20:17;;;;;;;;;;;;;;;;;;4991867;28;19957;-93
2022/06/29 03:22:45;;;;;;;;;;;;;;;;;;4990495;28;19910;-91
2022/06/29 03:25:11;;;;;;;;;;;;;;;;;;4970326;28;19913;-92
2022/06/29 03:27:37;;;;;;;;;;;;;;;;;;4970193;28;19924;-93
2022/06/29 03:30:03;;;;;;;;;;;;;;;;;;4964915;28;19925;-92
2022/06/29 03:32:29;;;;;;;;;;;;;;;;;;4967191;28;19922;-94
2022/06/29 03:34:55;;;;;;;;;;;;;;;;;;4984362;28;19989;-92
2022/06/29 03:37:21;;;;;;;;;;;;;;;;;;4963878;28;19918;-93
2022/06/29 03:39:48;;;;;;;;;;;;;;;;;;4966791;28;19987;-93
2022/06/29 03:42:14;;;;;;;;;;;;;;;;;;4988471;28;20047;-92
2022/06/29 03:44:39;;;;;;;;;;;;;;;;;;4984989;28;19964;-92
2022/06/29 03:47:07;;;;;;;;;;;;;;;;;;4983661;28;20882;-93
2022/06/29 03:49:33;;;;;;;;;;;;;;;;;;4978582;28;19972;-94
2022/06/29 03:51:59;;;;;;;;;;;;;;;;;;4969584;28;20085;-93
2022/06/29 03:54:25;;;;;;;;;;;;;;;;;;4969787;28;20362;-93
2022/06/29 03:56:51;;;;;;;;;;;;;;;;;;4983402;28;19914;-93
2022/06/29 03:59:17;;;;;;;;;;;;;;;;;;4984868;28;19999;-93
2022/06/29 04:01:43;;;;;;;;;;;;;;;;;;4960882;28;19918;-92
2022/06/29 04:04:08;;;;;;;;;;;;;;;;;;4947407;28;20429;-91
2022/06/29 04:06:34;;;;;;;;;;;;;;;;;;4944452;28;19914;-93
2022/06/29 04:09:00;;;;;;;;;;;;;;;;;;4950816;28;19914;-92
2022/06/29 04:11:48;;;;;;;;;;;;;;;;;;4946472;28;19910;-92
2022/06/29 04:14:14;;;;;;;;;;;;;;;;;;4950298;28;20308;-92
2022/06/29 04:16:40;;;;;;;;;;;;;;;;;;4944809;28;19914;-93
2022/06/29 04:19:06;;;;;;;;;;;;;;;;;;4950368;28;19921;-92
2022/06/29 04:21:32;;;;;;;;;;;;;;;;;;4950243;28;19921;-91
2022/06/29 04:23:58;;;;;;;;;;;;;;;;;;4951507;28;19918;-90
2022/06/29 04:26:23;;;;;;;;;;;;;;;;;;4950092;28;20386;-93
2022/06/29 04:28:49;;;;;;;;;;;;;;;;;;4951246;28;19914;-93
2022/06/29 04:31:15;;;;;;;;;;;;;;;;;;4953140;28;19914;-93
2022/06/29 04:33:41;;;;;;;;;;;;;;;;;;4949695;28;19960;-93
2022/06/29 04:36:07;;;;;;;;;;;;;;;;;;4946491;28;19996;-93
2022/06/29 04:38:33;;;;;;;;;;;;;;;;;;4950727;28;19910;-93
2022/06/29 04:40:59;;;;;;;;;;;;;;;;;;4948939;28;20888;-93
2022/06/29 04:43:27;;;;;;;;;;;;;;;;;;4946433;28;19921;-92
2022/06/29 04:48:38;;;;;;;;;;;;;;;;;;4962576;28;19925;-93
2022/06/29 04:51:03;;;;;;;;;;;;;;;;;;4949058;28;19914;-93
2022/06/29 04:53:29;;;;;;;;;;;;;;;;;;4947611;28;19914;-92
2022/06/29 04:55:55;;;;;;;;;;;;;;;;;;4947714;28;20025;-92
2022/06/29 04:58:21;;;;;;;;;;;;;;;;;;4944367;28;20308;-92
2022/06/29 05:00:47;;;;;;;;;;;;;;;;;;4953544;28;20014;-92
2022/06/29 05:03:13;;;;;;;;;;;;;;;;;;4966851;28;19921;-92
2022/06/29 05:05:39;;;;;;;;;;;;;;;;;;4977454;28;19910;-92
2022/06/29 05:08:05;;;;;;;;;;;;;;;;;;4965353;28;20012;-92
2022/06/29 05:10:31;;;;;;;;;;;;;;;;;;4977654;28;19910;-91
2022/06/29 05:12:57;;;;;;;;;;;;;;;;;;4962407;28;19917;-92
2022/06/29 05:15:23;;;;;;;;;;;;;;;;;;4959364;28;19921;-91
2022/06/29 05:17:49;;;;;;;;;;;;;;;;;;4970698;28;19909;-92
2022/06/29 05:20:15;;;;;;;;;;;;;;;;;;4974034;28;19913;-92
2022/06/29 05:22:41;;;;;;;;;;;;;;;;;;4977546;28;19918;-92
2022/06/29 05:25:07;;;;;;;;;;;;;;;;;;4979075;28;19964;-91
2022/06/29 05:27:32;;;;;;;;;;;;;;;;;;4975448;28;20403;-90
2022/06/29 05:29:58;;;;;;;;;;;;;;;;;;4979877;28;19918;-91
2022/06/29 05:32:25;;;;;;;;;;;;;;;;;;4978998;28;19910;-91
2022/06/29 05:34:50;;;;;;;;;;;;;;;;;;4967485;28;19922;-92
2022/06/29 05:37:16;;;;;;;;;;;;;;;;;;4965647;28;19918;-91
2022/06/29 05:39:44;;;;;;;;;;;;;;;;;;4966859;28;19918;-91
2022/06/29 05:42:10;;;;;;;;;;;;;;;;;;4964957;28;19920;-91
2022/06/29 05:44:36;;;;;;;;;;;;;;;;;;4963846;28;19917;-92
2022/06/29 05:47:03;;;;;;;;;;;;;;;;;;4966566;28;20004;-93
2022/06/29 05:49:29;;;;;;;;;;;;;;;;;;4959936;28;19913;-93
2022/06/29 05:51:55;;;;;;;;;;;;;;;;;;4965167;28;19917;-92
2022/06/29 05:54:21;;;;;;;;;;;;;;;;;;4965823;28;19910;-91
2022/06/29 05:56:47;;;;;;;;;;;;;;;;;;4975451;28;19910;-91
2022/06/29 05:59:13;;;;;;;;;;;;;;;;;;4969764;28;19921;-90
2022/06/29 06:01:39;;;;;;;;;;;;;;;;;;4966164;28;19921;-91
2022/06/29 06:04:04;;;;;;;;;;;;;;;;;;4981130;28;19910;-91
2022/06/29 06:06:30;;;;;;;;;;;;;;;;;;4979984;28;19956;-91
2022/06/29 06:08:56;;;;;;;;;;;;;;;;;;4979047;28;21530;-90
2022/06/29 06:11:22;;;;;;;;;;;;;;;;;;4956992;28;20018;-90
2022/06/29 06:13:48;;;;;;;;;;;;;;;;;;4961972;28;19917;-90
2022/06/29 06:16:15;;;;;;;;;;;;;;;;;;4954741;28;19921;-90
2022/06/29 06:18:40;;;;;;;;;;;;;;;;;;4977614;28;20597;-90
2022/06/29 06:21:06;;;;;;;;;;;;;;;;;;4973244;28;19909;-90
2022/06/29 06:23:32;;;;;;;;;;;;;;;;;;4996862;28;19922;-88
2022/06/29 06:25:58;;;;;;;;;;;;;;;;;;4962530;28;19920;-90
2022/06/29 06:28:24;;;;;;;;;;;;;;;;;;4964843;28;19922;-91
2022/06/29 06:30:50;;;;;;;;;;;;;;;;;;4983207;28;19916;-90
2022/06/29 06:33:16;;;;;;;;;;;;;;;;;;4958086;28;19914;-90
2022/06/29 06:35:42;;;;;;;;;;;;;;;;;;4968585;28;19918;-90
2022/06/29 06:38:08;;;;;;;;;;;;;;;;;;4963741;28;20353;-90
2022/06/29 06:43:18;;;;;;;;;;;;;;;;;;4977052;28;20185;-90
2022/06/29 06:45:44;;;;;;;;;;;;;;;;;;4978208;28;20490;-91
2022/06/29 06:48:10;;;;;;;;;;;;;;;;;;4965229;28;20342;-91
2022/06/29 06:50:36;;;;;;;;;;;;;;;;;;4965239;28;19910;-91
2022/06/29 06:53:02;;;;;;;;;;;;;;;;;;4959699;28;20159;-91
2022/06/29 06:55:28;;;;;;;;;;;;;;;;;;4978041;28;19909;-91
2022/06/29 06:57:54;;;;;;;;;;;;;;;;;;4964318;28;19914;-90
2022/06/29 07:00:20;;;;;;;;;;;;;;;;;;4980109;28;19913;-90
2022/06/29 07:02:46;;;;;;;;;;;;;;;;;;4961649;28;19929;-91
2022/06/29 07:05:12;;;;;;;;;;;;;;;;;;4978947;28;19924;-91
2022/06/29 07:07:39;;;;;;;;;;;;;;;;;;4980500;28;19957;-91
2022/06/29 07:10:05;;;;;;;;;;;;;;;;;;4963397;28;20364;-90
2022/06/29 07:12:31;;;;;;;;;;;;;;;;;;4964271;28;19920;-90
2022/06/29 07:14:57;;;;;;;;;;;;;;;;;;4982700;28;19910;-91
2022/06/29 07:17:23;;;;;;;;;;;;;;;;;;4959548;28;19913;-90
2022/06/29 07:19:48;;;;;;;;;;;;;;;;;;4984707;28;20383;-90
2022/06/29 07:22:14;;;;;;;;;;;;;;;;;;4967836;28;19917;-90
2022/06/29 07:24:40;;;;;;;;;;;;;;;;;;4966521;28;19914;-90
2022/06/29 07:27:06;;;;;;;;;;;;;;;;;;4978476;28;19918;-91
2022/06/29 07:29:32;;;;;;;;;;;;;;;;;;4965106;28;20231;-91
2022/06/29 07:31:58;;;;;;;;;;;;;;;;;;4968397;28;20375;-92
2022/06/29 07:34:24;;;;;;;;;;;;;;;;;;4975022;28;19913;-91
2022/06/29 07:36:50;;;;;;;;;;;;;;;;;;4969901;28;20389;-90
2022/06/29 07:39:16;;;;;;;;;;;;;;;;;;4982350;28;19918;-93
2022/06/29 07:41:42;;;;;;;;;;;;;;;;;;4964931;28;19917;-91
2022/06/29 07:44:08;;;;;;;;;;;;;;;;;;4985979;28;19918;-91
2022/06/29 07:46:34;;;;;;;;;;;;;;;;;;4982478;28;19917;-91
2022/06/29 07:49:01;;;;;;;;;;;;;;;;;;4975068;28;20345;-91
2022/06/29 07:51:27;;;;;;;;;;;;;;;;;;4982187;28;20234;-91
2022/06/29 07:53:53;;;;;;;;;;;;;;;;;;4962669;28;19992;-91
2022/06/29 07:56:18;;;;;;;;;;;;;;;;;;4978445;28;19917;-91
2022/06/29 07:58:44;;;;;;;;;;;;;;;;;;4992924;28;20942;-91
2022/06/29 08:01:10;;;;;;;;;;;;;;;;;;4985095;28;19913;-92
2022/06/29 08:03:36;;;;;;;;;;;;;;;;;;4967230;28;19924;-91
2022/06/29 08:06:02;;;;;;;;;;;;;;;;;;4965724;28;19949;-90
2022/06/29 08:08:28;;;;;;;;;;;;;;;;;;4967539;28;19913;-91
2022/06/29 08:10:54;;;;;;;;;;;;;;;;;;4977573;28;19914;-91
2022/06/29 08:13:20;;;;;;;;;;;;;;;;;;4969270;28;19909;-91
2022/06/29 08:15:46;;;;;;;;;;;;;;;;;;4969113;28;20833;-90
2022/06/29 08:18:12;;;;;;;;;;;;;;;;;;4967191;28;19957;-91
2022/06/29 08:20:38;;;;;;;;;;;;;;;;;;4968762;28;20067;-91
2022/06/29 08:23:04;;;;;;;;;;;;;;;;;;4969408;28;19913;-90
2022/06/29 08:25:31;;;;;;;;;;;;;;;;;;4967876;28;20587;-90
2022/06/29 08:27:57;;;;;;;;;;;;;;;;;;4968195;28;20393;-91
2022/06/29 08:30:23;;;;;;;;;;;;;;;;;;4966058;28;19914;-91
2022/06/29 08:32:49;;;;;;;;;;;;;;;;;;4966733;28;20488;-91
2022/06/29 08:35:15;;;;;;;;;;;;;;;;;;4966112;28;19949;-91
2022/06/29 08:37:41;;;;;;;;;;;;;;;;;;4969816;28;20007;-91
2022/06/29 08:40:07;;;;;;;;;;;;;;;;;;4966909;28;20009;-92
2022/06/29 08:42:33;;;;;;;;;;;;;;;;;;4977951;28;20212;-91
2022/06/29 08:44:59;;;;;;;;;;;;;;;;;;4964966;28;19937;-92
2022/06/29 08:47:24;;;;;;;;;;;;;;;;;;4980992;28;20365;-92
2022/06/29 08:49:50;;;;;;;;;;;;;;;;;;4961468;28;19918;-92
2022/06/29 08:52:16;;;;;;;;;;;;;;;;;;4978959;28;19924;-91
2022/06/29 08:54:42;;;;;;;;;;;;;;;;;;4965313;28;19917;-92
2022/06/29 08:57:08;;;;;;;;;;;;;;;;;;4979983;28;19964;-90
2022/06/29 08:59:34;;;;;;;;;;;;;;;;;;4968089;28;20365;-92
2022/06/29 09:02:00;;;;;;;;;;;;;;;;;;4967012;28;19956;-92
2022/06/29 09:04:26;;;;;;;;;;;;;;;;;;4970503;28;19941;-92
2022/06/29 09:06:52;;;;;;;;;;;;;;;;;;4968928;28;19910;-91
2022/06/29 09:09:18;;;;;;;;;;;;;;;;;;4987831;28;20130;-92
2022/06/29 09:11:44;;;;;;;;;;;;;;;;;;4984989;28;19909;-92
2022/06/29 09:14:10;;;;;;;;;;;;;;;;;;4966466;28;19914;-91
2022/06/29 09:16:36;;;;;;;;;;;;;;;;;;4959300;28;20290;-90
2022/06/29 09:19:02;;;;;;;;;;;;;;;;;;4965341;28;19996;-91
2022/06/29 09:21:28;;;;;;;;;;;;;;;;;;4963743;28;20357;-91
2022/06/29 09:23:54;;;;;;;;;;;;;;;;;;4967053;28;19913;-91
2022/06/29 09:26:20;;;;;;;;;;;;;;;;;;4968192;28;19913;-91
2022/06/29 09:28:46;;;;;;;;;;;;;;;;;;4978999;28;19925;-91
2022/06/29 09:31:12;;;;;;;;;;;;;;;;;;4980379;28;19906;-92
2022/06/29 09:33:38;;;;;;;;;;;;;;;;;;4993730;28;20021;-91
2022/06/29 09:36:04;;;;;;;;;;;;;;;;;;4998561;28;19933;-91
2022/06/29 09:38:29;;;;;;;;;;;;;;;;;;4985831;28;19917;-90
2022/06/29 09:40:55;;;;;;;;;;;;;;;;;;4967734;28;20223;-92
2022/06/29 09:43:21;;;;;;;;;;;;;;;;;;4967502;28;19909;-91
2022/06/29 09:45:48;;;;;;;;;;;;;;;;;;4970596;28;19957;-91
2022/06/29 09:48:14;;;;;;;;;;;;;;;;;;4971298;28;19921;-92
2022/06/29 09:50:40;;;;;;;;;;;;;;;;;;4986800;28;20387;-92
2022/06/29 09:53:07;;;;;;;;;;;;;;;;;;4987024;28;20956;-90
2022/06/29 09:55:34;;;;;;;;;;;;;;;;;;4971921;28;19921;-90
2022/06/29 09:57:59;;;;;;;;;;;;;;;;;;4995542;28;19910;-89
2022/06/29 10:03:11;;;;;;;;;;;;;;;;;;4973625;28;19976;-92
2022/06/29 10:05:55;;;;;;;;;;;;;;;;;;4946624;28;20122;-89
2022/06/29 10:08:28;;;;;;;;;;;;;;;;;;4940911;28;19922;-85
2022/06/29 10:10:54;;;;;;;;;;;;;;;;;;4957489;28;19953;-86
2022/06/29 10:16:05;;;;;;;;;;;;;;;;;;4964104;28;19932;-87
2022/06/29 10:18:31;;;;;;;;;;;;;;;;;;4944638;28;20380;-88
2022/06/29 10:20:57;;;;;;;;;;;;;;;;;;4944194;28;19915;-86
2022/06/29 10:23:23;;;;;;;;;;;;;;;;;;4940240;28;19964;-90
2022/06/29 10:25:49;;;;;;;;;;;;;;;;;;4941861;28;19910;-87
2022/06/29 10:28:19;;;;;;;;;;;;;;;;;;4946942;28;19928;-89
2022/06/29 10:30:45;;;;;;;;;;;;;;;;;;4942591;28;19918;-90
2022/06/29 10:33:11;;;;;;;;;;;;;;;;;;4941645;28;20113;-89
2022/06/29 10:35:37;;;;;;;;;;;;;;;;;;4941231;28;19988;-90
2022/06/29 10:38:03;;;;;;;;;;;;;;;;;;4942938;28;19918;-91
2022/06/29 10:40:30;;;;;;;;;;;;;;;;;;4946049;28;19964;-90
2022/06/29 10:43:08;;;;;;;;;;;;;;;;;;4947250;28;20381;-90
2022/06/29 10:45:34;;;;;;;;;;;;;;;;;;4946748;28;20281;-90
2022/06/29 10:48:05;;;;;;;;;;;;;;;;;;4944346;28;19922;-91
2022/06/29 10:50:31;;;;;;;;;;;;;;;;;;4948978;28;19918;-91
2022/06/29 10:52:57;;;;;;;;;;;;;;;;;;4947730;28;20019;-91
2022/06/29 10:55:23;;;;;;;;;;;;;;;;;;4950528;28;19961;-90
2022/06/29 10:57:49;;;;;;;;;;;;;;;;;;4947751;28;20420;-90
2022/06/29 11:00:15;;;;;;;;;;;;;;;;;;4962325;28;19918;-91
2022/06/29 11:02:41;;;;;;;;;;;;;;;;;;4962370;28;19980;-91
2022/06/29 11:05:07;;;;;;;;;;;;;;;;;;4985882;28;19919;-91
2022/06/29 11:13:02;;;;;;;;;;;;;;;;;;4987219;28;19921;-90
2022/06/29 11:15:45;;;;;;;;;;;;;;;;;;4973494;28;19913;-90
2022/06/29 11:18:11;;;;;;;;;;;;;;;;;;4971531;28;19980;-90
2022/06/29 11:20:37;;;;;;;;;;;;;;;;;;4981734;28;19918;-90
2022/06/29 11:23:02;;;;;;;;;;;;;;;;;;4984379;28;19921;-90
2022/06/29 11:25:28;;;;;;;;;;;;;;;;;;4986243;28;19967;-89
2022/06/29 11:27:54;;;;;;;;;;;;;;;;;;4978862;28;19985;-90
2022/06/29 11:30:21;;;;;;;;;;;;;;;;;;4961527;28;19913;-89
2022/06/29 11:32:47;;;;;;;;;;;;;;;;;;4983735;28;20312;-90
2022/06/29 11:35:13;;;;;;;;;;;;;;;;;;4963462;28;19921;-90
2022/06/29 11:37:39;;;;;;;;;;;;;;;;;;4973254;28;20322;-88
2022/06/29 11:40:05;;;;;;;;;;;;;;;;;;4981860;28;19906;-88
2022/06/29 11:45:16;;;;;;;;;;;;;;;;;;4984612;28;19969;-88
2022/06/29 11:47:41;;;;;;;;;;;;;;;;;;4965210;28;19914;-88
2022/06/29 11:50:07;;;;;;;;;;;;;;;;;;4971760;28;20004;-89
2022/06/29 11:52:34;;;;;;;;;;;;;;;;;;4968135;28;19910;-89
2022/06/29 11:55:01;;;;;;;;;;;;;;;;;;4966699;28;19910;-88
2022/06/29 11:57:27;;;;;;;;;;;;;;;;;;4985141;28;20293;-88
2022/06/29 11:59:53;;;;;;;;;;;;;;;;;;4993446;28;19921;-88
2022/06/29 12:02:19;;;;;;;;;;;;;;;;;;4967313;28;19914;-88
2022/06/29 12:04:45;;;;;;;;;;;;;;;;;;4966254;28;20046;-88
2022/06/29 12:07:11;;;;;;;;;;;;;;;;;;4985298;28;19988;-88
2022/06/29 12:09:40;;;;;;;;;;;;;;;;;;4984317;28;20417;-89
2022/06/29 12:12:06;;;;;;;;;;;;;;;;;;4968803;28;19957;-89
2022/06/29 12:14:32;;;;;;;;;;;;;;;;;;4967268;28;20528;-88
2022/06/29 12:16:58;;;;;;;;;;;;;;;;;;4963251;28;19916;-89
2022/06/29 12:19:23;;;;;;;;;;;;;;;;;;4970816;28;20407;-88
2022/06/29 12:21:49;;;;;;;;;;;;;;;;;;4982466;28;19910;-88
2022/06/29 12:24:15;;;;;;;;;;;;;;;;;;4992952;28;19940;-88
2022/06/29 12:26:41;;;;;;;;;;;;;;;;;;4974754;28;19945;-88
2022/06/29 12:29:07;;;;;;;;;;;;;;;;;;4979964;28;19929;-89
2022/06/29 12:31:33;;;;;;;;;;;;;;;;;;4988150;28;19981;-88
2022/06/29 12:34:00;;;;;;;;;;;;;;;;;;4982871;28;20004;-88
2022/06/29 12:36:25;;;;;;;;;;;;;;;;;;4981341;28;19921;-89
2022/06/29 12:38:51;;;;;;;;;;;;;;;;;;4981828;28;20402;-89
2022/06/29 12:41:17;;;;;;;;;;;;;;;;;;4968811;28;19917;-89
2022/06/29 12:43:43;;;;;;;;;;;;;;;;;;4984390;28;19918;-89
2022/06/29 12:46:09;;;;;;;;;;;;;;;;;;4963693;28;20052;-89
2022/06/29 12:48:35;;;;;;;;;;;;;;;;;;4961880;28;19983;-90
2022/06/29 12:51:01;;;;;;;;;;;;;;;;;;4964487;28;19910;-90
2022/06/29 12:53:27;;;;;;;;;;;;;;;;;;4970268;28;19913;-90
2022/06/29 12:55:53;;;;;;;;;;;;;;;;;;4985390;28;19909;-90
2022/06/29 12:58:20;;;;;;;;;;;;;;;;;;4965669;28;19937;-90
2022/06/29 13:00:46;;;;;;;;;;;;;;;;;;4981930;28;19914;-90
2022/06/29 13:03:12;;;;;;;;;;;;;;;;;;4971698;28;19921;-88
2022/06/29 13:05:38;;;;;;;;;;;;;;;;;;4968508;28;19914;-88
2022/06/29 13:08:04;;;;;;;;;;;;;;;;;;4995524;28;19922;-88
2022/06/29 13:10:30;;;;;;;;;;;;;;;;;;4974617;28;20220;-88
2022/06/29 13:12:56;;;;;;;;;;;;;;;;;;4991771;28;19917;-88
2022/06/29 13:15:22;;;;;;;;;;;;;;;;;;4980160;28;19925;-87
2022/06/29 13:17:47;;;;;;;;;;;;;;;;;;4962460;28;19914;-88
2022/06/29 13:20:13;;;;;;;;;;;;;;;;;;4966378;28;20281;-88
2022/06/29 13:22:39;;;;;;;;;;;;;;;;;;4962921;28;19972;-88
2022/06/29 13:25:05;;;;;;;;;;;;;;;;;;4964429;28;20004;-88
2022/06/29 13:27:31;;;;;;;;;;;;;;;;;;4967930;28;19910;-87
2022/06/29 13:29:57;;;;;;;;;;;;;;;;;;4989323;28;19968;-87
2022/06/29 13:32:23;;;;;;;;;;;;;;;;;;4953578;28;19918;-88
2022/06/29 13:34:49;;;;;;;;;;;;;;;;;;4956597;28;19956;-88
2022/06/29 13:37:15;;;;;;;;;;;;;;;;;;4983088;28;19910;-88
2022/06/29 13:39:41;;;;;;;;;;;;;;;;;;4964353;28;19953;-88
2022/06/29 13:42:07;;;;;;;;;;;;;;;;;;4964831;28;19918;-87
2022/06/29 13:44:33;;;;;;;;;;;;;;;;;;4953964;28;20005;-88
2022/06/29 13:46:59;;;;;;;;;;;;;;;;;;4962188;28;20005;-89
2022/06/29 13:49:25;;;;;;;;;;;;;;;;;;4964317;28;19936;-88
2022/06/29 13:51:51;;;;;;;;;;;;;;;;;;4980403;28;20334;-88
2022/06/29 13:54:16;;;;;;;;;;;;;;;;;;4978125;28;20383;-88
2022/06/29 13:56:42;;;;;;;;;;;;;;;;;;4966677;28;20000;-88
2022/06/29 13:59:08;;;;;;;;;;;;;;;;;;4976618;28;19906;-88
2022/06/29 14:01:34;;;;;;;;;;;;;;;;;;4968125;28;19909;-88
2022/06/29 14:04:00;;;;;;;;;;;;;;;;;;4961091;28;20028;-88
2022/06/29 14:06:26;;;;;;;;;;;;;;;;;;4978832;28;20280;-88
2022/06/29 14:08:52;;;;;;;;;;;;;;;;;;4962420;28;20285;-88
2022/06/29 14:11:18;;;;;;;;;;;;;;;;;;4980151;28;20187;-87
2022/06/29 14:13:44;;;;;;;;;;;;;;;;;;4966952;28;20719;-88
2022/06/29 14:16:10;;;;;;;;;;;;;;;;;;4966830;28;20334;-88
2022/06/29 14:18:35;;;;;;;;;;;;;;;;;;4964481;28;19909;-88
2022/06/29 14:21:02;;;;;;;;;;;;;;;;;;4973532;28;19973;-88
2022/06/29 14:23:28;;;;;;;;;;;;;;;;;;4982121;28;20409;-88
2022/06/29 14:28:30;;;;;;;7.40;4.40;;;;;;;;;;4762260;27;8265611;-86
2022/06/29 14:30:56;;;;;;;6.15;4.03;;;;;;;;;;5018992;28;20049;-86
2022/06/29 14:33:22;;;;;;;12.98;3.97;;;;;;;;;;5035947;28;20029;-87
2022/06/29 14:35:49;;;;;;;6.18;4.72;;;;;;;;;;5017093;28;20037;-87
2022/06/29 14:38:15;;;;;;;5.65;4.47;;;;;;;;;;5033310;28;20037;-87
2022/06/29 14:40:41;;;;;;;8.82;4.93;;;;;;;;;;5020578;28;20496;-87
2022/06/29 14:43:07;;;;;;;6.22;4.18;;;;;;;;;;5048696;28;20076;-87
2022/06/29 14:45:52;;;;;;;6.00;3.90;;;;;;;;;;5033756;28;20079;-86
2022/06/29 14:48:18;;;;;;;5.13;4.38;;;;;;;;;;5033921;28;20033;-86
2022/06/29 14:50:44;;;;;;;5.03;4.53;;;;;;;;;;5032538;28;20071;-87
2022/06/29 14:53:10;;;;;;;6.65;4.55;;;;;;;;;;5047381;28;20026;-87
2022/06/29 14:55:36;;;;;;;5.30;4.25;;;;;;;;;;5049970;28;20025;-87
2022/06/29 14:58:03;;;;;;;5.22;4.03;;;;;;;;;;5029140;28;20052;-88
2022/06/29 15:00:29;;;;;;;6.60;3.70;;;;;;;;;;5031274;28;20083;-87
2022/06/29 15:02:55;;;;;;;5.40;3.90;;;;;;;;;;5032515;28;20056;-87
2022/06/29 15:05:21;;;;;;;4.40;4.00;;;;;;;;;;5048883;28;20084;-87
2022/06/29 15:07:48;;;;;;;4.10;3.75;;;;;;;;;;5030671;28;20083;-87
2022/06/29 15:10:14;;;;;;;5.63;4.47;;;;;;;;;;5036396;28;20447;-87
2022/06/29 15:12:40;;;;;;;7.93;3.80;;;;;;;;;;5032590;28;20499;-87
2022/06/29 15:15:06;;;;;;;5.95;3.60;;;;;;;;;;5032515;28;20053;-86
2022/06/29 15:17:32;;;;;;;6.28;3.53;;;;;;;;;;5031441;28;20036;-87
2022/06/29 15:19:59;;;;;;;6.88;3.47;;;;;;;;;;5030278;28;20373;-87
2022/06/29 15:22:25;;;;;;;5.25;3.90;;;;;;;;;;5026709;28;20396;-87
2022/06/29 15:24:51;;;;;;;7.75;3.83;;;;;;;;;;5035862;28;20036;-86
2022/06/29 15:27:17;;;;;;;8.10;3.83;;;;;;;;;;5029114;28;20526;-87
2022/06/29 15:29:44;;;;;;;5.47;3.90;;;;;;;;;;5032097;28;20025;-87
2022/06/29 15:32:10;;;;;;;5.32;3.58;;;;;;;;;;5028211;28;20025;-87
2022/06/29 15:40:06;;;;;;;4.72;4.22;;;;;;;;;;5034099;28;20283;-87
2022/06/29 15:42:32;;;;;;;9.20;4.25;;;;;;;;;;5019820;28;20400;-87
2022/06/29 15:44:58;;;;;;;13.32;4.82;;;;;;;;;;5017544;28;20029;-87
2022/06/29 15:47:24;;;;;;;5.10;4.05;;;;;;;;;;5031928;28;20036;-88
2022/06/29 15:49:50;;;;;;;4.60;3.85;;;;;;;;;;5017303;28;20021;-87
2022/06/29 15:52:16;;;;;;;7.93;3.85;;;;;;;;;;5015989;28;20036;-87
2022/06/29 15:57:27;;;;;;;5.20;3.90;;;;;;;;;;5035667;28;20688;-87
2022/06/29 15:59:53;;;;;;;6.07;4.10;;;;;;;;;;5021706;28;20032;-87
2022/06/29 16:02:19;;;;;;;13.35;3.63;;;;;;;;;;5014487;28;20036;-87
2022/06/29 16:04:45;;;;;;;4.57;3.88;;;;;;;;;;5038206;28;20060;-87
2022/06/29 16:07:11;;;;;;;8.90;4.55;;;;;;;;;;5039931;28;20689;-87
2022/06/29 16:09:37;;;;;;;6.65;3.38;;;;;;;;;;5022884;28;20022;-88
2022/06/29 16:12:06;;;;;;;7.95;3.63;;;;;;;;;;5009436;28;20436;-87
2022/06/29 16:14:32;;;;;;;5.75;3.90;;;;;;;;;;5025460;28;20040;-87
2022/06/29 16:16:58;;;;;;;5.85;3.55;;;;;;;;;;5013819;28;20765;-87
2022/06/29 16:19:24;;;;;;;5.78;3.78;;;;;;;;;;5033007;28;20025;-87
2022/06/29 16:21:50;;;;;;;3.97;3.40;;;;;;;;;;5014620;28;20045;-88
2022/06/29 16:24:16;;;;;;;3.35;3.05;;;;;;;;;;5019173;28;20041;-86
2022/06/29 16:26:55;;;;;;;4.25;3.40;;;;;;;;;;5016003;28;20045;-87
2022/06/29 16:29:21;;;;;;;8.63;3.45;;;;;;;;;;5010216;28;20025;-87
2022/06/29 16:31:47;;;;;;;5.80;3.40;;;;;;;;;;4998076;28;20079;-88
2022/06/29 16:34:13;;;;;;;4.63;3.40;;;;;;;;;;4998156;28;20080;-87
2022/06/29 16:36:39;;;;;;;6.22;3.78;;;;;;;;;;5017995;28;20045;-86
2022/06/29 16:39:05;;;;;;;5.07;3.55;;;;;;;;;;4998428;28;20436;-87
2022/06/29 16:41:32;;;;;;;5.63;3.35;;;;;;;;;;5016534;28;20037;-87
2022/06/29 16:43:58;;;;;;;4.45;3.50;;;;;;;;;;4995694;28;20033;-87
2022/06/29 16:46:24;;;;;;;4.60;3.58;;;;;;;;;;4997307;28;20061;-87
2022/06/29 16:48:50;;;;;;;8.25;4.60;;;;;;;;;;5001637;28;20123;-87
2022/06/29 16:51:16;;;;;;;7.22;4.30;;;;;;;;;;5001406;28;20045;-87
2022/06/29 16:53:42;;;;;;;4.85;3.58;;;;;;;;;;5004287;28;20030;-87